Aérodrome :
LOGIN :

S'inscrire | Disclaimer

   EN    FR    IT 

 










Légende :    VFR   VFR Marginal   IFR   IFR Intensif   IFR Très Intensif
Visi : 
Plafond : 
>= 8 km
>= 3000ft
5 à 8 km
1000 à 3000 ft
1500m à 5 km
500 à 1000 ft
800 à 1500m
200 à 500 ft
< 800m
< 200 ft
Symboles :   Orages  Brouillard  Fortes neiges  Fortes précipitations  Vent > 20 kt
SIGMETs :   Divers  Orages  Givrage  Turbulence  Onde Orograph.  Cendres Volcan.







- Altitude de l'aérodrome : 183 ft


LIBA - Amendola Foggia

METARs EXPIRÉS :
  • 241355Z 08012KT 9999 FEW030CB 34/17 Q1014 RMK SCT SCT200 VIS MIN 9999 WIND THR11 08015KT WIND THR29 /////KT BLU
  • 241255Z 08011KT 9999 FEW030CB 34/17 Q1014 RMK SCT SCT200 VIS MIN 9999 WIND THR11 09013KT WIND THR29 /////KT BLU
  • 241155Z 09010KT 060V120 9999 FEW030TCU 34/17 Q1015 RMK SCT SCT200 VIS MIN 9999 WIND THR11 08012KT WIND THR29 /////KT BLU

Prévision TAF périmée.
Pas de NOTAMs connus pour ce terrain.
1 SIGMET publié pour la FIR Brindisi (LIBB) :
 
LIBB SIGMET 1 VALID 241613/241810 LIIB- LIBB BRINDISI FIR EMBD TS FCST WI N4300 E01306 - N4300 E01356 - N4147 E01441 - N4128 E01555 - N4042 E01702 - N4007 E01623 - N3957 E01549 - N4111 E01511 - N4129 E01418 - N4300 E01306 TOP FL400 STNR WKN=



MET'MAP, la Météo Aéronautique d'un coup d'oeil ! - Copyright ORBIFLY Décembre 2007 - Disclaimer

ORBIFLY MET'MAP TEAM :

Programmation & Développement : Alexandra Zaïnal
Conception & Développement : Baudouin d'Aumeries
Co-Programmation & Développement : Marc-Olivier Méhu
Soutien technique & logistique : Manuel Goepfert

Contact : metmap@orbifly.com




SOURCES & CREDITS :

   NOAA